Midway, South Dakota
Current Conditions -  °F | °C
As of 9:15 AM on Wednesday 26 Nov 2014 (Local Time) from KYKN Reporting Station
Overcast Overcast  
Wind Chill: 10°   Ceiling: 1400
Heat Index: 25°   Visibility: 9mi
Dew Point: 19°   Wind: 21mph
Humidity: 80%   Direction: 330°NNW
Pressure: 30.18"   Gusts: 26mph
Location:  43.1951°N, 97.1515°W
Report Text: KYKN 261515Z AUTO 33018G23KT 9SM BKN014 OVC021 M04/M07 A3018 RMK AO1
Loading
Personal Weather Stations






























Interactive Weather Map New forecast layout! Learn more

10-Day Weather Forecast

Advertisements
Track Severe Weather on mobile